首页
METAR-TAF:

METAR-TAF

机场 :

兰州中川国际机场

兰州, 中华人民共和国

纬度: 36-02N, 经度: 103-52E, 海拔: 1518米

当前天气观测

该预报发布于1小时和9分钟前的13:00 UTC
风速6节,风向南转西南
温度 20°C
湿度 88%
气压 1017 hPa
能见度10公里或以上
少量云层高于4000英尺, 积雨云.
散云层高于4600英尺
小阵雨

METAR: ZLLL 251300Z 21003MPS 9999 -SHRA FEW040CB SCT046 20/18 Q1017 NOSIG

时间: 22:09 (14:09 UTC)

预报

该预报发布于5小时和5分钟前的09:04 UTC
预报有效从25日的 12点(UTC)到 26日的 12点(UTC)
风速6节,风向东北
能見度: 6000
散云层高于1300英尺
阴天层高于4000英尺
成为
从 25日的 16点(UTC)到 25日的 17点(UTC)
能見度: 4000
小雨
短暂存在
从 25日的 18点(UTC)到 25日的 24点(UTC)
成为
从 26日的 03点(UTC)到 26日的 04点(UTC)
能見度: 6000

TAF: ZLLL 250904Z 2512/2612 05003MPS 6000 SCT013 OVC040 TX21/2512Z TN13/2522Z BECMG 2516/2517 4000 -RA TEMPO 2518/2524 RA BECMG 2603/2604 6000

超过4000个机场的气象观测和天气预报(METAR&TAF报告)。

可查询的气象台以黄色和红色小点在地图上表示。

将鼠标移到小点上方,可查看气象台名称。

然后点击查看天气观测和预报。

如需切换地图:点击带黑十字的绿色按钮放大地图;点击带横线的绿色按钮缩小地图;或者点击绿色箭头查看邻近地区的地图。


METAR-TAF: